Time;durP1;ratioP1;P1;durP2;ratioP2;P2;SDS_P1;SDS_P2;PMS_P1;PMS_P2;Temp;Humidity;BMP_temperature;BMP_pressure;BME280_temperature;BME280_humidity;BME280_pressure;Samples;Min_cycle;Max_cycle;Signal;HPM_P1;HPM_P2
2023/05/12 00:02:53;;;;;;;21.05;7.60;;;15.20;99.90;;;;;;5079428;28;20047;-80
2023/05/12 00:05:59;;;;;;;23.02;7.05;;;16.20;99.90;;;;;;5091477;28;20043;-79
2023/05/12 00:09:03;;;;;;;23.95;7.38;;;16.30;99.90;;;;;;5092036;28;20051;-80
2023/05/12 00:12:08;;;;;;;18.65;6.68;;;16.20;99.90;;;;;;5092172;28;20059;-79
2023/05/12 00:15:12;;;;;;;21.75;7.40;;;16.30;99.90;;;;;;5091993;28;20039;-79
2023/05/12 00:18:16;;;;;;;25.58;7.30;;;16.30;99.90;;;;;;5091753;28;20047;-79
2023/05/12 00:21:20;;;;;;;22.30;6.88;;;16.30;99.90;;;;;;5091794;28;20046;-79
2023/05/12 00:24:25;;;;;;;25.92;6.95;;;16.20;99.90;;;;;;5091419;28;20077;-79
2023/05/12 00:27:30;;;;;;;19.85;7.00;;;15.90;99.90;;;;;;5091437;28;20051;-79
2023/05/12 00:30:34;;;;;;;20.83;7.15;;;16.10;99.90;;;;;;5090486;28;20051;-80
2023/05/12 00:33:38;;;;;;;25.00;7.75;;;16.00;99.90;;;;;;5091352;28;20043;-79
2023/05/12 00:36:42;;;;;;;15.75;6.38;;;15.80;99.90;;;;;;5090750;28;20039;-79
2023/05/12 00:39:46;;;;;;;22.15;7.03;;;14.50;99.90;;;;;;5091728;28;20055;-79
2023/05/12 00:42:50;;;;;;;20.10;6.70;;;15.60;99.90;;;;;;5079009;28;20043;-79
2023/05/12 00:45:55;;;;;;;14.75;6.38;;;15.70;99.90;;;;;;5091295;28;20051;-79
2023/05/12 00:48:59;;;;;;;24.60;6.95;;;16.70;99.90;;;;;;5091581;28;20063;-79
2023/05/12 00:52:03;;;;;;;18.13;6.38;;;15.60;99.90;;;;;;5091034;28;20047;-79
2023/05/12 00:55:08;;;;;;;27.42;6.07;;;15.50;99.90;;;;;;5090725;28;20486;-79
2023/05/12 00:58:11;;;;;;;21.88;6.00;;;15.50;99.90;;;;;;5091470;28;20047;-79
2023/05/12 01:01:17;;;;;;;21.70;6.68;;;;;;;;;;5090150;28;20039;-79
2023/05/12 01:04:22;;;;;;;19.00;5.78;;;15.60;99.90;;;;;;5090257;28;20047;-82
2023/05/12 01:07:31;;;;;;;18.05;5.45;;;15.50;99.90;;;;;;5089959;28;20043;-79
2023/05/12 01:10:35;;;;;;;18.50;5.80;;;14.60;99.90;;;;;;5078728;28;20075;-78
2023/05/12 01:13:40;;;;;;;24.75;5.53;;;18.80;99.90;;;;;;5089380;28;20054;-78
2023/05/12 01:16:51;;;;;;;17.27;5.80;;;18.40;99.90;;;;;;5091212;28;20051;-78
2023/05/12 01:20:00;;;;;;;18.75;5.03;;;16.60;99.90;;;;;;5090310;28;20051;-80
2023/05/12 01:23:05;;;;;;;22.55;6.53;;;15.90;99.90;;;;;;5090337;28;20050;-78
2023/05/12 01:26:10;;;;;;;15.20;5.50;;;16.90;99.90;;;;;;5090975;28;20031;-78
2023/05/12 01:29:15;;;;;;;21.75;5.97;;;14.50;99.90;;;;;;5089763;28;20051;-79
2023/05/12 01:32:20;;;;;;;18.63;5.53;;;15.90;99.90;;;;;;5090165;28;20051;-78
2023/05/12 01:35:24;;;;;;;18.50;4.93;;;15.80;99.90;;;;;;5090207;28;20047;-78
2023/05/12 01:38:35;;;;;;;17.00;4.93;;;15.90;99.90;;;;;;5090146;28;20047;-79
2023/05/12 01:41:39;;;;;;;19.45;5.40;;;15.60;99.90;;;;;;5090215;28;20055;-78
2023/05/12 01:44:44;;;;;;;20.50;4.38;;;15.80;99.90;;;;;;5078295;28;20047;-78
2023/05/12 01:47:48;;;;;;;18.13;4.32;;;15.60;99.90;;;;;;5090060;28;20039;-78
2023/05/12 01:50:52;;;;;;;17.65;4.50;;;15.80;99.90;;;;;;5090633;28;20047;-78
2023/05/12 01:53:58;;;;;;;18.67;4.25;;;14.80;99.90;;;;;;5089911;28;20039;-78
2023/05/12 01:57:05;;;;;;;18.23;5.07;;;15.80;99.90;;;;;;5089931;28;20051;-78
2023/05/12 02:00:12;;;;;;;19.48;5.03;;;15.60;99.90;;;;;;5089903;28;20035;-78
2023/05/12 02:03:19;;;;;;;14.65;4.63;;;15.80;99.90;;;;;;5090542;28;20051;-78
2023/05/12 02:06:22;;;;;;;16.25;5.95;;;15.30;99.90;;;;;;5089333;28;20035;-78
2023/05/12 02:09:27;;;;;;;17.38;4.70;;;16.60;99.90;;;;;;5090025;28;20043;-78
2023/05/12 02:12:35;;;;;;;16.00;5.00;;;15.30;99.90;;;;;;5089590;28;20055;-79
2023/05/12 02:15:39;;;;;;;13.98;4.60;;;15.20;99.90;;;;;;5089866;28;20039;-79
2023/05/12 02:18:43;;;;;;;17.27;4.47;;;15.30;99.90;;;;;;5089794;28;20043;-79
2023/05/12 02:21:47;;;;;;;23.08;5.57;;;16.70;99.90;;;;;;5077738;28;20058;-78
2023/05/12 02:24:51;;;;;;;12.13;4.00;;;17.80;99.90;;;;;;5090608;28;20047;-79
2023/05/12 02:27:56;;;;;;;15.65;3.88;;;;;;;;;;5092912;28;20071;-79
2023/05/12 02:31:00;;;;;;;18.42;4.75;;;15.50;99.90;;;;;;5093088;28;20546;-79
2023/05/12 02:34:05;;;;;;;16.70;4.57;;;16.40;99.90;;;;;;5093304;28;20047;-79
2023/05/12 02:37:09;;;;;;;21.23;4.57;;;15.40;99.90;;;;;;5093538;28;20063;-79
2023/05/12 02:40:13;;;;;;;14.75;4.28;;;12.70;99.90;;;;;;5092846;28;20540;-79
2023/05/12 02:43:17;;;;;;;15.77;3.97;;;15.40;99.90;;;;;;5093092;28;20051;-79
2023/05/12 02:46:21;;;;;;;14.27;3.92;;;15.60;99.90;;;;;;5092794;28;20047;-79
2023/05/12 02:49:24;;;;;;;13.43;3.45;;;15.60;99.90;;;;;;5093709;28;20055;-79
2023/05/12 02:52:28;;;;;;;12.98;3.75;;;15.70;99.90;;;;;;5093667;28;20055;-79
2023/05/12 02:55:33;;;;;;;13.70;4.07;;;;;;;;;;5092859;28;20047;-78
2023/05/12 02:58:37;;;;;;;12.23;4.00;;;16.70;99.90;;;;;;5093613;28;20051;-79
2023/05/12 03:01:41;;;;;;;15.65;4.70;;;15.60;99.90;;;;;;5093691;28;20141;-79
2023/05/12 03:04:45;;;;;;;25.88;7.85;;;15.60;99.90;;;;;;5092584;28;20035;-79
2023/05/12 03:07:49;;;;;;;25.45;8.65;;;15.50;99.90;;;;;;5092159;28;20051;-78
2023/05/12 03:10:53;;;;;;;19.60;7.30;;;;;;;;;;5092404;28;20071;-78
2023/05/12 03:13:57;;;;;;;16.83;5.65;;;15.50;99.90;;;;;;5093041;28;20048;-78
2023/05/12 03:17:00;;;;;;;15.55;4.18;;;15.60;99.90;;;;;;5092567;28;20046;-78
2023/05/12 03:20:05;;;;;;;15.43;3.60;;;15.50;99.90;;;;;;5092388;28;20059;-78
2023/05/12 03:23:09;;;;;;;15.98;3.58;;;15.80;99.90;;;;;;5093105;28;20491;-78
2023/05/12 03:26:13;;;;;;;14.63;3.78;;;14.50;99.90;;;;;;5092130;28;20502;-79
2023/05/12 03:29:17;;;;;;;14.57;3.03;;;15.80;99.90;;;;;;5091929;28;20051;-78
2023/05/12 03:32:21;;;;;;;12.35;3.33;;;15.70;99.90;;;;;;5091922;28;20058;-78
2023/05/12 03:35:25;;;;;;;17.40;3.17;;;15.30;99.90;;;;;;5092059;28;20507;-79
2023/05/12 03:38:29;;;;;;;16.23;3.40;;;15.60;99.90;;;;;;5080386;28;20043;-79
2023/05/12 03:41:33;;;;;;;13.00;3.65;;;11.30;99.90;;;;;;5092189;28;20059;-79
2023/05/12 03:44:38;;;;;;;14.93;3.72;;;15.50;99.90;;;;;;5092340;28;20051;-79
2023/05/12 03:47:41;;;;;;;18.05;3.70;;;15.60;99.90;;;;;;5092428;28;20494;-79
2023/05/12 03:50:45;;;;;;;15.82;3.70;;;15.60;99.90;;;;;;5079678;28;20390;-79
2023/05/12 03:53:50;;;;;;;20.52;3.95;;;14.80;99.90;;;;;;5092329;28;20047;-79
2023/05/12 03:56:54;;;;;;;18.70;3.38;;;15.60;99.90;;;;;;5091529;28;20063;-79
2023/05/12 03:59:58;;;;;;;19.35;3.70;;;15.70;99.90;;;;;;5092387;28;20035;-79
2023/05/12 04:03:02;;;;;;;15.88;3.20;;;15.50;99.90;;;;;;5091470;28;20658;-79
2023/05/12 04:06:06;;;;;;;15.57;3.70;;;14.50;99.90;;;;;;5092042;28;20051;-78
2023/05/12 04:09:10;;;;;;;16.30;3.75;;;13.10;99.90;;;;;;5091248;28;20043;-78
2023/05/12 04:12:15;;;;;;;17.27;3.28;;;15.60;99.90;;;;;;5091101;28;20664;-79
2023/05/12 04:15:18;;;;;;;14.35;3.60;;;16.20;99.90;;;;;;5091424;28;20042;-78
2023/05/12 04:18:25;;;;;;;11.13;3.65;;;15.60;99.90;;;;;;5091915;28;20047;-79
2023/05/12 04:21:29;;;;;;;11.63;3.10;;;15.40;99.90;;;;;;5092083;28;20130;-78
2023/05/12 04:24:35;;;;;;;16.73;3.80;;;15.50;99.90;;;;;;5091198;28;20519;-78
2023/05/12 04:27:39;;;;;;;18.85;3.22;;;15.50;99.90;;;;;;5090385;28;20055;-79
2023/05/12 04:30:42;;;;;;;14.93;3.80;;;14.60;99.90;;;;;;5090832;28;20063;-78
2023/05/12 04:33:46;;;;;;;14.80;4.00;;;15.80;99.90;;;;;;5091770;28;20046;-78
2023/05/12 04:36:50;;;;;;;18.25;6.60;;;18.80;99.90;;;;;;5079084;28;20050;-78
2023/05/12 04:39:55;;;;;;;16.48;3.55;;;16.30;99.90;;;;;;5090981;28;20407;-78
2023/05/12 04:42:59;;;;;;;13.40;3.83;;;15.50;99.90;;;;;;5090777;28;20055;-78
2023/05/12 04:46:04;;;;;;;17.88;3.72;;;16.40;99.90;;;;;;5090294;28;20042;-79
2023/05/12 04:49:10;;;;;;;14.05;3.28;;;15.30;99.90;;;;;;5090141;28;20051;-80
2023/05/12 04:52:14;;;;;;;13.45;3.85;;;16.80;99.90;;;;;;5090209;28;20051;-79
2023/05/12 04:55:18;;;;;;;12.30;3.63;;;17.10;99.90;;;;;;5090553;28;20063;-79
2023/05/12 04:58:22;;;;;;;13.10;2.65;;;17.30;99.90;;;;;;5090643;28;20503;-80
2023/05/12 05:01:27;;;;;;;14.90;3.45;;;17.50;99.90;;;;;;5090401;28;20043;-79
2023/05/12 05:04:31;;;;;;;11.15;4.25;;;17.80;99.90;;;;;;5090611;28;20055;-79
2023/05/12 05:07:35;;;;;;;11.52;3.80;;;18.00;99.90;;;;;;5090281;28;20051;-79
2023/05/12 05:10:39;;;;;;;12.23;2.80;;;18.20;99.90;;;;;;5090779;28;20058;-79
2023/05/12 05:13:43;;;;;;;6.03;2.65;;;18.10;99.90;;;;;;5091235;28;20415;-79
2023/05/12 05:16:47;;;;;;;14.57;3.10;;;18.30;99.90;;;;;;5091098;28;20043;-79
2023/05/12 05:19:51;;;;;;;13.70;3.05;;;18.40;99.90;;;;;;5091020;28;20051;-79
2023/05/12 05:22:55;;;;;;;10.60;2.75;;;18.30;99.90;;;;;;5091228;28;20047;-79
2023/05/12 05:25:59;;;;;;;11.88;3.13;;;18.40;99.90;;;;;;5090509;28;20058;-60
2023/05/12 05:29:04;;;;;;;9.45;3.25;;;18.50;99.50;;;;;;5089668;28;20056;-59
2023/05/12 05:32:08;;;;;;;13.90;3.42;;;18.60;99.50;;;;;;5089964;28;20055;-60
2023/05/12 05:35:12;;;;;;;17.73;3.75;;;18.70;99.30;;;;;;5090731;28;20063;-60
2023/05/12 05:38:22;;;;;;;11.85;2.92;;;18.90;99.20;;;;;;5078496;28;20043;-61
2023/05/12 05:41:26;;;;;;;12.05;3.05;;;18.90;99.00;;;;;;5090071;28;20039;-61
2023/05/12 05:44:30;;;;;;;12.20;3.20;;;19.10;99.00;;;;;;5089659;28;20043;-60
2023/05/12 05:47:36;;;;;;;13.85;3.10;;;19.30;98.60;;;;;;5089473;28;20039;-60
2023/05/12 05:50:40;;;;;;;10.95;3.22;;;19.30;98.30;;;;;;5089821;28;20054;-60
2023/05/12 05:53:44;;;;;;;11.30;3.13;;;19.40;98.30;;;;;;5089718;28;20408;-60
2023/05/12 05:56:50;;;;;;;13.52;3.03;;;19.30;98.20;;;;;;5089286;28;20145;-60
2023/05/12 05:59:54;;;;;;;10.70;3.38;;;19.10;98.10;;;;;;5091291;28;20043;-60
2023/05/12 06:02:58;;;;;;;10.40;2.35;;;19.10;97.80;;;;;;5093641;28;20039;-61
2023/05/12 06:06:03;;;;;;;9.35;2.15;;;19.10;97.40;;;;;;5093974;28;20047;-60
2023/05/12 06:09:08;;;;;;;10.32;2.28;;;19.10;96.70;;;;;;5093468;28;20063;-59
2023/05/12 06:12:12;;;;;;;8.02;2.45;;;19.00;96.80;;;;;;5094037;28;20055;-60
2023/05/12 06:15:17;;;;;;;6.80;2.13;;;18.80;97.30;;;;;;5093093;28;20059;-61
2023/05/12 06:18:22;;;;;;;15.48;2.40;;;19.10;97.00;;;;;;5093943;28;20391;-61
2023/05/12 06:21:26;;;;;;;11.38;2.55;;;19.20;95.80;;;;;;5093274;28;20379;-61
2023/05/12 06:24:30;;;;;;;13.00;2.00;;;19.40;94.80;;;;;;5093406;28;20039;-61
2023/05/12 06:27:34;;;;;;;17.73;2.72;;;19.40;94.90;;;;;;5093766;28;20518;-61
2023/05/12 06:30:38;;;;;;;14.20;2.17;;;19.50;95.50;;;;;;5093852;28;20074;-61
2023/05/12 06:33:42;;;;;;;12.02;2.67;;;19.80;94.40;;;;;;5094246;28;20043;-61
2023/05/12 06:36:46;;;;;;;20.83;2.70;;;20.00;94.20;;;;;;5094006;28;20047;-61
2023/05/12 06:39:50;;;;;;;17.13;2.55;;;20.10;94.30;;;;;;5093442;28;20051;-61
2023/05/12 06:42:54;;;;;;;13.27;2.55;;;20.40;94.30;;;;;;5093426;28;20047;-61
2023/05/12 06:45:58;;;;;;;37.38;12.18;;;20.60;93.80;;;;;;5092762;28;20059;-60
2023/05/12 06:49:02;;;;;;;17.25;2.67;;;20.60;94.30;;;;;;5093357;28;20047;-62
2023/05/12 06:52:06;;;;;;;13.80;2.70;;;20.70;94.10;;;;;;5093243;28;20077;-62
2023/05/12 06:55:10;;;;;;;10.60;2.28;;;20.70;94.60;;;;;;5093655;28;20043;-62
2023/05/12 06:58:14;;;;;;;22.75;2.58;;;20.80;94.40;;;;;;5093595;28;20051;-62
2023/05/12 07:01:18;;;;;;;15.07;3.40;;;20.80;94.00;;;;;;5093531;28;20047;-62
2023/05/12 07:04:22;;;;;;;27.25;3.88;;;20.90;94.00;;;;;;5093495;28;20047;-62
2023/05/12 07:07:26;;;;;;;16.63;2.75;;;21.20;94.00;;;;;;5093586;28;20494;-62
2023/05/12 07:10:32;;;;;;;13.73;2.90;;;21.40;93.70;;;;;;5094748;28;20052;-62
2023/05/12 07:13:37;;;;;;;13.95;2.97;;;21.60;93.00;;;;;;5092838;28;20047;-62
2023/05/12 07:16:41;;;;;;;16.73;2.72;;;21.80;93.50;;;;;;5092792;28;20051;-62
2023/05/12 07:19:45;;;;;;;20.35;3.08;;;21.90;93.10;;;;;;5091801;28;20050;-61
2023/05/12 07:22:50;;;;;;;13.38;2.30;;;21.90;92.60;;;;;;5092606;28;20039;-61
2023/05/12 07:25:54;;;;;;;14.77;2.60;;;21.90;92.00;;;;;;5092066;28;20051;-61
2023/05/12 07:28:59;;;;;;;15.88;2.92;;;21.90;91.70;;;;;;5092283;28;20455;-61
2023/05/12 07:32:04;;;;;;;13.40;2.53;;;21.90;91.90;;;;;;5092239;28;20055;-61
2023/05/12 07:35:09;;;;;;;13.75;2.42;;;22.10;92.00;;;;;;5092846;28;20063;-60
2023/05/12 07:38:13;;;;;;;11.32;2.28;;;21.90;91.50;;;;;;5092079;28;20051;-59
2023/05/12 07:41:17;;;;;;;15.30;2.83;;;21.50;91.80;;;;;;5092623;28;20051;-62
2023/05/12 07:44:20;;;;;;;14.02;2.53;;;21.30;92.20;;;;;;5092165;28;20047;-64
2023/05/12 07:47:25;;;;;;;16.13;2.80;;;20.80;92.50;;;;;;5092423;28;20047;-64
2023/05/12 07:50:28;;;;;;;17.02;2.80;;;20.80;92.90;;;;;;5091896;28;20047;-63
2023/05/12 07:53:33;;;;;;;9.35;2.30;;;21.00;92.40;;;;;;5092096;28;20518;-61
2023/05/12 07:56:37;;;;;;;14.35;2.60;;;21.30;92.10;;;;;;5092044;28;20054;-62
2023/05/12 07:59:41;;;;;;;14.63;3.33;;;21.50;91.50;;;;;;5092029;28;20071;-62
2023/05/12 08:02:45;;;;;;;17.98;2.63;;;21.70;91.60;;;;;;5091119;28;20047;-62
2023/05/12 08:05:50;;;;;;;14.52;2.58;;;21.90;91.50;;;;;;5092083;28;20055;-61
2023/05/12 08:08:56;;;;;;;12.77;3.05;;;22.20;90.80;;;;;;5091678;28;20039;-64
2023/05/12 08:12:00;;;;;;;16.63;2.35;;;22.30;90.40;;;;;;5091768;28;20051;-63
2023/05/12 08:15:05;;;;;;;13.25;2.30;;;22.00;90.80;;;;;;5091790;28;20122;-64
2023/05/12 08:18:09;;;;;;;18.77;3.95;;;21.70;90.80;;;;;;5091866;28;20130;-63
2023/05/12 08:21:13;;;;;;;15.27;2.70;;;21.50;90.60;;;;;;5091318;28;20391;-61
2023/05/12 08:24:17;;;;;;;13.88;3.20;;;21.50;91.80;;;;;;5089744;28;20047;-60
2023/05/12 08:27:21;;;;;;;12.27;3.03;;;21.60;91.60;;;;;;5089603;28;20047;-61
2023/05/12 08:30:26;;;;;;;14.82;2.97;;;21.40;91.50;;;;;;5091486;28;20058;-60
2023/05/12 08:33:30;;;;;;;16.05;3.13;;;21.30;92.00;;;;;;5090434;28;20352;-60
2023/05/12 08:36:34;;;;;;;15.52;3.03;;;21.20;92.20;;;;;;5091001;28;20111;-61
2023/05/12 08:39:38;;;;;;;13.18;3.03;;;21.50;92.00;;;;;;5090369;28;20051;-62
2023/05/12 08:42:47;;;;;;;17.00;2.88;;;21.50;91.40;;;;;;5090150;28;20043;-62
2023/05/12 08:46:01;;;;;;;18.02;2.70;;;21.50;92.00;;;;;;5091347;28;20499;-62
2023/05/12 08:49:08;;;;;;;12.10;2.40;;;21.30;92.20;;;;;;5090484;28;20043;-62
2023/05/12 08:52:20;;;;;;;17.42;2.60;;;21.10;92.00;;;;;;5091139;28;20059;-61
2023/05/12 08:55:25;;;;;;;10.52;2.50;;;20.80;92.10;;;;;;5090968;28;20043;-61
2023/05/12 08:58:30;;;;;;;11.43;2.47;;;20.60;92.80;;;;;;5091154;28;20047;-60
2023/05/12 09:01:35;;;;;;;18.25;3.45;;;20.50;93.20;;;;;;5089915;28;20403;-60
2023/05/12 09:04:39;;;;;;;15.68;3.92;;;20.40;94.10;;;;;;5090963;28;20043;-60
2023/05/12 09:07:44;;;;;;;18.73;3.42;;;20.20;93.90;;;;;;5090890;28;20047;-62
2023/05/12 09:10:48;;;;;;;16.55;2.85;;;20.10;94.20;;;;;;5090753;28;20399;-62
2023/05/12 09:14:08;;;;;;;16.98;3.30;;;20.00;94.80;;;;;;5090413;28;20521;-61
2023/05/12 09:17:12;;;;;;;15.05;3.20;;;19.90;95.30;;;;;;5090883;28;20043;-60
2023/05/12 09:20:17;;;;;;;12.18;2.53;;;19.80;95.50;;;;;;5090917;28;20051;-60
2023/05/12 09:23:21;;;;;;;15.57;2.72;;;19.80;95.60;;;;;;5090690;28;20060;-61
2023/05/12 09:26:27;;;;;;;14.05;2.60;;;19.80;95.50;;;;;;5090677;28;20055;-61
2023/05/12 09:29:32;;;;;;;12.23;2.83;;;19.80;95.40;;;;;;5090333;28;20047;-61
2023/05/12 09:32:36;;;;;;;14.23;3.05;;;19.80;95.20;;;;;;5090606;28;20051;-61
2023/05/12 09:35:42;;;;;;;14.45;2.88;;;19.80;95.20;;;;;;5093329;28;20039;-60
2023/05/12 09:38:58;;;;;;;17.67;2.45;;;19.70;95.20;;;;;;5094842;28;20055;-59
2023/05/12 09:42:02;;;;;;;10.18;2.53;;;19.70;95.40;;;;;;5094512;28;20039;-60
2023/05/12 09:45:10;;;;;;;14.00;2.80;;;19.60;95.40;;;;;;5094958;28;20059;-60
2023/05/12 09:48:14;;;;;;;13.23;2.55;;;19.60;95.20;;;;;;5094659;28;20055;-58
2023/05/12 09:51:18;;;;;;;32.35;8.55;;;19.70;95.60;;;;;;5093984;28;20071;-59
2023/05/12 09:54:26;;;;;;;13.15;3.15;;;19.70;95.40;;;;;;5094666;28;20043;-60
2023/05/12 09:57:30;;;;;;;19.67;6.47;;;19.80;95.60;;;;;;5094102;28;20046;-60
2023/05/12 10:00:37;;;;;;;14.32;3.03;;;19.80;95.40;;;;;;5094594;28;20043;-60
2023/05/12 10:03:47;;;;;;;12.68;3.35;;;19.80;95.70;;;;;;5093698;28;20042;-59
2023/05/12 10:06:52;;;;;;;14.70;3.60;;;19.80;95.70;;;;;;5094101;28;20058;-59
2023/05/12 10:10:00;;;;;;;13.95;2.90;;;19.80;95.40;;;;;;5093710;28;20047;-58
2023/05/12 10:13:05;;;;;;;10.88;2.70;;;19.80;95.70;;;;;;5094111;28;20054;-61
2023/05/12 10:16:09;;;;;;;18.45;4.35;;;19.90;96.00;;;;;;5094316;28;20059;-60
2023/05/12 10:19:14;;;;;;;14.27;2.85;;;19.90;96.20;;;;;;5093847;28;20042;-61
2023/05/12 10:22:19;;;;;;;14.80;3.28;;;20.00;95.70;;;;;;5094227;28;20063;-62
2023/05/12 10:25:23;;;;;;;15.30;3.30;;;20.00;96.60;;;;;;5093746;28;20047;-60
2023/05/12 10:28:28;;;;;;;22.33;3.40;;;20.00;96.30;;;;;;5093582;28;20403;-60
2023/05/12 10:31:34;;;;;;;19.58;3.75;;;20.00;96.90;;;;;;5093794;28;20068;-60
2023/05/12 10:34:40;;;;;;;17.85;3.45;;;20.00;97.60;;;;;;5093912;28;20067;-61
2023/05/12 10:37:45;;;;;;;21.73;4.40;;;19.90;98.80;;;;;;5092024;28;20062;-62
2023/05/12 10:40:59;;;;;;;20.17;4.65;;;19.80;99.90;;;;;;5093815;28;20396;-62
2023/05/12 10:44:03;;;;;;;18.50;4.78;;;19.60;99.90;;;;;;5093563;28;20043;-62
2023/05/12 10:47:14;;;;;;;17.35;4.15;;;19.40;99.90;;;;;;5092768;28;20047;-62
2023/05/12 10:50:28;;;;;;;17.55;5.10;;;19.30;99.90;;;;;;5092541;28;20051;-62
2023/05/12 10:53:36;;;;;;;21.35;4.30;;;19.20;99.90;;;;;;5093370;28;20047;-61
2023/05/12 10:56:43;;;;;;;11.55;2.58;;;19.10;99.90;;;;;;5092955;28;20036;-61
2023/05/12 10:59:55;;;;;;;11.43;2.85;;;19.10;99.90;;;;;;5091267;28;20047;-61
2023/05/12 11:03:01;;;;;;;8.52;1.98;;;18.90;99.90;;;;;;5091990;28;20047;-60
2023/05/12 11:06:05;;;;;;;11.88;2.22;;;18.80;99.40;;;;;;5092130;28;20055;-60
2023/05/12 11:09:11;;;;;;;16.50;2.92;;;18.50;99.10;;;;;;5093096;28;20387;-60
2023/05/12 11:12:15;;;;;;;7.07;1.95;;;18.50;99.90;;;;;;5092890;28;20059;-60
2023/05/12 11:15:20;;;;;;;10.05;2.53;;;18.40;99.70;;;;;;5092830;28;20038;-61
2023/05/12 11:18:24;;;;;;;21.75;3.10;;;18.40;99.90;;;;;;5092926;28;20498;-61
2023/05/12 11:21:29;;;;;;;15.63;3.08;;;18.30;99.90;;;;;;5091948;28;20047;-61
2023/05/12 11:24:33;;;;;;;22.88;4.65;;;18.30;99.90;;;;;;5092948;28;20047;-60
2023/05/12 11:27:41;;;;;;;21.30;4.53;;;18.20;99.90;;;;;;5092684;28;20050;-61
2023/05/12 11:30:52;;;;;;;15.80;3.70;;;18.30;99.90;;;;;;5092842;28;20043;-61
2023/05/12 11:34:06;;;;;;;18.83;4.53;;;18.40;99.90;;;;;;5093004;28;20047;-62
2023/05/12 11:37:10;;;;;;;15.23;3.60;;;18.40;99.90;;;;;;5092828;28;20047;-61
2023/05/12 11:40:19;;;;;;;18.38;4.75;;;18.60;99.90;;;;;;5092528;28;20043;-62
2023/05/12 11:43:26;;;;;;;18.98;4.55;;;18.90;99.90;;;;;;5092758;28;20047;-62
2023/05/12 11:46:30;;;;;;;16.27;3.33;;;19.10;99.90;;;;;;5092444;28;20428;-62
2023/05/12 11:49:45;;;;;;;14.98;4.10;;;19.40;99.90;;;;;;5092633;28;20109;-62
2023/05/12 11:52:50;;;;;;;14.75;3.15;;;19.60;99.90;;;;;;5091522;28;20047;-62
2023/05/12 11:55:55;;;;;;;15.30;3.50;;;19.80;99.90;;;;;;5092391;28;20051;-62
2023/05/12 11:59:00;;;;;;;15.90;3.05;;;19.90;99.90;;;;;;5091561;28;20399;-62
2023/05/12 12:02:04;;;;;;;11.73;2.58;;;19.90;99.90;;;;;;5091713;28;20043;-62
2023/05/12 12:05:18;;;;;;;12.63;3.22;;;19.90;99.90;;;;;;5090963;28;20505;-62
2023/05/12 12:08:22;;;;;;;11.15;2.53;;;19.80;99.90;;;;;;5091641;28;20039;-62
2023/05/12 12:11:27;;;;;;;13.32;3.08;;;19.80;99.90;;;;;;5089318;28;20038;-62
2023/05/12 12:14:32;;;;;;;14.15;3.63;;;19.70;99.90;;;;;;5088374;28;20071;-61
2023/05/12 12:17:36;;;;;;;15.18;4.22;;;19.60;99.90;;;;;;5090025;28;20043;-61
2023/05/12 12:20:40;;;;;;;11.45;2.95;;;19.50;99.90;;;;;;5089617;28;20046;-62
2023/05/12 12:23:44;;;;;;;15.77;2.83;;;19.50;99.90;;;;;;5089985;28;20391;-62
2023/05/12 12:26:49;;;;;;;16.10;2.92;;;19.50;99.90;;;;;;5090821;28;20043;-61
2023/05/12 12:29:53;;;;;;;6.60;2.80;;;19.30;99.90;;;;;;5091615;28;20055;-61
2023/05/12 12:32:57;;;;;;;13.52;3.38;;;19.20;99.90;;;;;;5091239;28;20411;-62
2023/05/12 12:36:01;;;;;;;13.57;3.83;;;19.20;99.90;;;;;;5091282;28;20043;-61
2023/05/12 12:39:05;;;;;;;15.82;3.50;;;19.30;99.90;;;;;;5091716;28;20051;-61
2023/05/12 12:42:09;;;;;;;14.45;3.83;;;19.30;99.90;;;;;;5090973;28;20043;-61
2023/05/12 12:45:13;;;;;;;13.07;3.70;;;19.30;99.90;;;;;;5091204;28;20067;-60
2023/05/12 12:48:17;;;;;;;12.57;2.95;;;19.10;99.90;;;;;;5091269;28;20048;-61
2023/05/12 12:51:21;;;;;;;11.38;3.10;;;19.10;99.90;;;;;;5091038;28;20043;-60
2023/05/12 12:54:25;;;;;;;12.38;3.30;;;19.20;99.90;;;;;;5090784;28;20499;-61
2023/05/12 12:57:29;;;;;;;12.82;3.50;;;19.20;99.90;;;;;;5091390;28;20048;-62
2023/05/12 13:00:33;;;;;;;8.57;2.70;;;19.20;99.90;;;;;;5091082;28;20047;-60
2023/05/12 13:03:37;;;;;;;14.75;3.15;;;19.20;99.90;;;;;;5091073;28;20050;-60
2023/05/12 13:06:41;;;;;;;12.30;3.28;;;19.20;99.90;;;;;;5091172;28;20047;-61
2023/05/12 13:09:45;;;;;;;12.98;3.83;;;19.30;99.90;;;;;;5091079;28;20047;-61
2023/05/12 13:12:49;;;;;;;12.02;3.40;;;19.40;99.90;;;;;;5090868;28;20054;-61
2023/05/12 13:15:53;;;;;;;13.35;3.38;;;19.50;99.90;;;;;;5091090;28;20062;-62
2023/05/12 13:18:57;;;;;;;15.38;3.03;;;19.70;99.90;;;;;;5091000;28;20063;-61
2023/05/12 13:22:01;;;;;;;15.77;2.47;;;19.80;99.90;;;;;;5090994;28;20043;-60
2023/05/12 13:25:08;;;;;;;8.25;1.85;;;19.90;99.90;;;;;;5089703;28;20047;-60
2023/05/12 13:28:12;;;;;;;8.73;2.33;;;20.00;99.90;;;;;;5090633;28;20407;-60
2023/05/12 13:31:16;;;;;;;10.85;1.92;;;20.00;98.70;;;;;;5090734;28;20047;-60
2023/05/12 13:34:20;;;;;;;9.93;1.80;;;20.10;97.30;;;;;;5090966;28;20051;-60
2023/05/12 13:37:23;;;;;;;9.65;2.53;;;20.20;96.80;;;;;;5090730;28;20070;-60
2023/05/12 13:40:27;;;;;;;11.73;2.28;;;20.30;96.10;;;;;;5090632;28;20059;-60
2023/05/12 13:43:31;;;;;;;15.70;2.17;;;20.40;95.90;;;;;;5090718;28;20047;-60
2023/05/12 13:46:35;;;;;;;13.70;3.20;;;20.50;95.30;;;;;;5089822;28;20533;-61
2023/05/12 13:49:39;;;;;;;11.35;2.22;;;20.50;94.50;;;;;;5087972;28;20051;-61
2023/05/12 13:52:43;;;;;;;18.00;2.75;;;20.60;93.80;;;;;;5087756;28;20055;-61
2023/05/12 13:55:47;;;;;;;10.57;1.63;;;20.70;94.50;;;;;;5088946;28;20059;-62
2023/05/12 13:58:51;;;;;;;13.15;2.30;;;20.80;94.10;;;;;;5090459;28;20152;-62
2023/05/12 14:01:57;;;;;;;13.60;1.92;;;20.80;93.40;;;;;;5089871;28;20059;-62
2023/05/12 14:05:01;;;;;;;9.38;1.90;;;20.90;92.90;;;;;;5089613;28;20054;-61
2023/05/12 14:08:05;;;;;;;14.45;2.00;;;20.90;93.10;;;;;;5088026;28;20623;-62
2023/05/12 14:11:08;;;;;;;10.45;2.00;;;20.90;91.90;;;;;;5089344;28;20047;-62
2023/05/12 14:14:12;;;;;;;9.73;2.83;;;20.90;91.70;;;;;;5089583;28;20070;-61
2023/05/12 14:17:17;;;;;;;9.93;1.80;;;20.90;91.90;;;;;;5089609;28;20051;-62
2023/05/12 14:20:21;;;;;;;11.80;3.15;;;20.90;91.70;;;;;;5090254;28;20039;-62
2023/05/12 14:23:25;;;;;;;8.50;2.30;;;21.00;91.60;;;;;;5094156;28;20043;-62
2023/05/12 14:26:29;;;;;;;8.05;1.73;;;21.00;91.70;;;;;;5093838;28;20391;-61
2023/05/12 14:29:33;;;;;;;12.48;1.83;;;21.00;90.90;;;;;;5093662;28;20130;-62
2023/05/12 14:32:37;;;;;;;11.25;1.92;;;21.00;90.90;;;;;;5093546;28;20059;-62
2023/05/12 14:35:41;;;;;;;14.05;1.90;;;21.00;91.20;;;;;;5093675;28;20043;-62
2023/05/12 14:38:45;;;;;;;9.95;2.17;;;21.00;91.00;;;;;;5093407;28;20051;-62
2023/05/12 14:41:49;;;;;;;10.50;1.92;;;21.00;91.00;;;;;;5093636;28;20042;-62
2023/05/12 14:44:53;;;;;;;8.30;2.05;;;21.00;90.90;;;;;;5093333;28;20043;-63
2023/05/12 14:47:57;;;;;;;11.80;2.17;;;21.00;90.90;;;;;;5093496;28;20394;-62
2023/05/12 14:51:02;;;;;;;11.10;2.00;;;21.00;91.30;;;;;;5093357;28;20070;-61
2023/05/12 14:54:07;;;;;;;9.48;1.88;;;21.00;90.80;;;;;;5092686;28;20051;-62
2023/05/12 14:57:12;;;;;;;11.85;1.98;;;21.00;90.80;;;;;;5093347;28;20035;-60
2023/05/12 15:00:17;;;;;;;9.98;2.00;;;21.00;90.70;;;;;;5093243;28;20057;-61
2023/05/12 15:03:21;;;;;;;9.18;1.70;;;21.00;90.60;;;;;;5093278;28;20043;-61
2023/05/12 15:06:25;;;;;;;9.73;1.95;;;21.00;90.10;;;;;;5093206;28;20051;-61
2023/05/12 15:09:29;;;;;;;9.35;2.28;;;20.90;90.00;;;;;;5092730;28;20039;-61
2023/05/12 15:12:34;;;;;;;11.43;2.00;;;20.90;90.40;;;;;;5093026;28;20428;-60
2023/05/12 15:15:40;;;;;;;6.88;1.55;;;20.90;90.60;;;;;;5092849;28;20471;-60
2023/05/12 15:18:45;;;;;;;11.02;1.92;;;20.90;90.70;;;;;;5092783;28;20589;-60
2023/05/12 15:21:49;;;;;;;10.98;1.63;;;20.80;89.70;;;;;;5092852;28;20384;-61
2023/05/12 15:24:53;;;;;;;8.05;2.05;;;20.80;88.90;;;;;;5092148;28;20051;-60
2023/05/12 15:27:56;;;;;;;21.95;3.53;;;20.80;88.60;;;;;;5092271;28;20535;-61
2023/05/12 15:31:00;;;;;;;12.25;2.20;;;20.70;89.20;;;;;;5092341;28;20164;-61
2023/05/12 15:34:05;;;;;;;11.48;2.13;;;20.70;89.90;;;;;;5091736;28;20050;-61
2023/05/12 15:37:10;;;;;;;11.15;2.13;;;20.70;88.90;;;;;;5092370;28;20066;-62
2023/05/12 15:40:14;;;;;;;8.55;1.80;;;20.70;89.50;;;;;;5092073;28;20042;-62
2023/05/12 15:43:18;;;;;;;9.85;1.67;;;20.70;89.80;;;;;;5091308;28;20043;-59
2023/05/12 15:46:23;;;;;;;16.02;2.63;;;20.70;90.30;;;;;;5092095;28;20054;-59
2023/05/12 15:49:27;;;;;;;10.05;1.98;;;20.70;90.60;;;;;;5091984;28;20051;-59
2023/05/12 15:52:31;;;;;;;6.05;1.60;;;20.70;90.30;;;;;;5091940;28;20391;-60